Iver Bright — ZDKU4 — position and weather

sailwx.info

Track history (hours):
 
Tides and Currents Weather Stations Pressure Air Temp Water Temp Dewpoint Dewpoint Depression Visibility Wind Speed Wind Dir Waves Ship Positions

Iver Bright

Last reported at 2015-Jun-16 16:22 UTC. Time now 2015-Jul-01 01:51 UTC.
Position N 36°51' E 016°22'.
Warning: this ship's position is 14 days out of date.

Length 111 m; draft 7.2 m.

Type: Tanker. MMSI: 236111811.

Date/timePositionNaut miles runAvg speedWind from/ knotsBaromVisibWave heightAir tempDewpointWater temp
2015-Jun-16 16:22N 36°51' E 016°22'911.4
2015-Jun-16 15:33N 36°54' E 016°11'1111.1
2015-Jun-16 14:33N 36°58' E 015°59'1110.8
2015-Jun-16 13:33N 37°02' E 015°46'1110.8
2015-Jun-16 12:33N 37°06' E 015°33'1110.4
2015-Jun-16 11:29N 37°10' E 015°20'  
2015-Jun-11 23:18N 37°13' E 015°12'14 0.8
2015-Jun-11 05:33N 37°09' E 015°29'2812.4
2015-Jun-11 03:18N 36°58' E 016°01'912.6
2015-Jun-11 02:34N 36°54' E 016°11'1212.3
2015-Jun-11 01:34N 36°50' E 016°26'1312.3
2015-Jun-11 00:31N 36°45' E 016°41'  
2015-Jun-08 15:23N 32°27' E 029°53'1412.6
2015-Jun-08 14:17N 32°22' E 030°08'1412.6
2015-Jun-08 13:12N 32°16' E 030°23'812.4
2015-Jun-08 12:32N 32°13' E 030°32'5112.6
2015-Jun-08 08:27N 31°55' E 031°29'1312.6
2015-Jun-08 07:26N 31°50' E 031°43'1212.6
2015-Jun-08 06:29N 31°46' E 031°56'1212.8
2015-Jun-08 05:33N 31°38' E 032°07'1313.0
2015-Jun-08 04:34N 31°30' E 032°18'9 9.3
2015-Jun-08 03:33N 31°21' E 032°23'10 9.9
2015-Jun-08 02:33N 31°12' E 032°20'32 9.2
2015-Jun-07 23:08N 30°40' E 032°20'25 8.4
2015-Jun-07 20:11N 30°16' E 032°28'7 8.8
2015-Jun-07 19:27N 30°12' E 032°34'8 8.9
2015-Jun-07 18:32N 30°04' E 032°34'  
Track history (hours):
 
Tides and Currents Weather Stations Pressure Air Temp Water Temp Dewpoint Dewpoint Depression Visibility Wind Speed Wind Dir Waves Ship Positions

Iver Bright

Last reported at 2015-Jun-16 16:22 UTC. Time now 2015-Jul-01 01:51 UTC.
Position N 36°51' E 016°22'.
Warning: this ship's position is 14 days out of date.

Length 111 m; draft 7.2 m.

Type: Tanker. MMSI: 236111811.

Date/timePositionNaut miles runAvg speedWind from/ knotsBaromVisibWave heightAir tempDewpointWater temp
2015-Jun-16 16:22N 36°51' E 016°22'911.4
2015-Jun-16 15:33N 36°54' E 016°11'1111.1
2015-Jun-16 14:33N 36°58' E 015°59'1110.8
2015-Jun-16 13:33N 37°02' E 015°46'1110.8
2015-Jun-16 12:33N 37°06' E 015°33'1110.4
2015-Jun-16 11:29N 37°10' E 015°20'  
2015-Jun-11 23:18N 37°13' E 015°12'14 0.8
2015-Jun-11 05:33N 37°09' E 015°29'2812.4
2015-Jun-11 03:18N 36°58' E 016°01'912.6
2015-Jun-11 02:34N 36°54' E 016°11'1212.3
2015-Jun-11 01:34N 36°50' E 016°26'1312.3
2015-Jun-11 00:31N 36°45' E 016°41'  
2015-Jun-08 15:23N 32°27' E 029°53'1412.6
2015-Jun-08 14:17N 32°22' E 030°08'1412.6
2015-Jun-08 13:12N 32°16' E 030°23'812.4
2015-Jun-08 12:32N 32°13' E 030°32'5112.6
2015-Jun-08 08:27N 31°55' E 031°29'1312.6
2015-Jun-08 07:26N 31°50' E 031°43'1212.6
2015-Jun-08 06:29N 31°46' E 031°56'1212.8
2015-Jun-08 05:33N 31°38' E 032°07'1313.0
2015-Jun-08 04:34N 31°30' E 032°18'9 9.3
2015-Jun-08 03:33N 31°21' E 032°23'10 9.9
2015-Jun-08 02:33N 31°12' E 032°20'32 9.2
2015-Jun-07 23:08N 30°40' E 032°20'25 8.4
2015-Jun-07 20:11N 30°16' E 032°28'7 8.8
2015-Jun-07 19:27N 30°12' E 032°34'8 8.9
2015-Jun-07 18:32N 30°04' E 032°34'  

Dump ship's entire track history